sensor_id;sensor_type;location;lat;lon;timestamp;pressure;altitude;pressure_sealevel;temperature;humidity
24422;BME280;12600;53.326;-6.298;2023-04-20T00:00:05;102236.81;;;11.82;57.54
24422;BME280;12600;53.326;-6.298;2023-04-20T00:03:02;102250.47;;;11.87;57.79
24422;BME280;12600;53.326;-6.298;2023-04-20T00:05:52;102248.84;;;11.86;57.45
24422;BME280;12600;53.326;-6.298;2023-04-20T00:08:41;102261.72;;;11.90;57.09
24422;BME280;12600;53.326;-6.298;2023-04-20T00:11:33;102276.75;;;11.93;56.90
24422;BME280;12600;53.326;-6.298;2023-04-20T00:14:22;102274.06;;;11.88;57.17
24422;BME280;12600;53.326;-6.298;2023-04-20T00:17:11;102254.31;;;11.86;57.22
24422;BME280;12600;53.326;-6.298;2023-04-20T00:20:01;102240.09;;;11.89;57.17
24422;BME280;12600;53.326;-6.298;2023-04-20T00:22:52;102233.50;;;11.85;57.33
24422;BME280;12600;53.326;-6.298;2023-04-20T00:25:41;102228.88;;;11.80;57.67
24422;BME280;12600;53.326;-6.298;2023-04-20T00:28:32;102222.59;;;11.54;58.36
24422;BME280;12600;53.326;-6.298;2023-04-20T00:31:21;102210.03;;;11.58;58.46
24422;BME280;12600;53.326;-6.298;2023-04-20T00:34:10;102211.94;;;11.58;58.33
24422;BME280;12600;53.326;-6.298;2023-04-20T00:37:00;102198.53;;;11.56;58.23
24422;BME280;12600;53.326;-6.298;2023-04-20T00:39:49;102207.84;;;11.45;58.62
24422;BME280;12600;53.326;-6.298;2023-04-20T00:42:39;102206.22;;;11.49;58.40
24422;BME280;12600;53.326;-6.298;2023-04-20T00:45:30;102219.38;;;11.47;58.42
24422;BME280;12600;53.326;-6.298;2023-04-20T00:48:20;102222.91;;;11.47;58.25
24422;BME280;12600;53.326;-6.298;2023-04-20T00:51:10;102219.38;;;11.42;58.89
24422;BME280;12600;53.326;-6.298;2023-04-20T00:53:59;102235.22;;;11.45;58.68
24422;BME280;12600;53.326;-6.298;2023-04-20T00:56:49;102217.72;;;11.41;58.91
24422;BME280;12600;53.326;-6.298;2023-04-20T00:59:40;102224.28;;;11.35;59.38
24422;BME280;12600;53.326;-6.298;2023-04-20T01:02:31;102215.84;;;11.31;59.44
24422;BME280;12600;53.326;-6.298;2023-04-20T01:05:21;102216.09;;;11.40;58.92
24422;BME280;12600;53.326;-6.298;2023-04-20T01:08:10;102218.81;;;11.40;58.83
24422;BME280;12600;53.326;-6.298;2023-04-20T01:11:00;102211.44;;;11.30;59.11
24422;BME280;12600;53.326;-6.298;2023-04-20T01:13:49;102208.44;;;11.21;58.84
24422;BME280;12600;53.326;-6.298;2023-04-20T01:16:38;102218.28;;;11.23;58.67
24422;BME280;12600;53.326;-6.298;2023-04-20T01:19:29;102212.53;;;11.14;58.40
24422;BME280;12600;53.326;-6.298;2023-04-20T01:22:20;102201.63;;;11.09;58.31
24422;BME280;12600;53.326;-6.298;2023-04-20T01:25:09;102204.88;;;11.06;58.03
24422;BME280;12600;53.326;-6.298;2023-04-20T01:27:59;102186.03;;;11.04;57.78
24422;BME280;12600;53.326;-6.298;2023-04-20T01:30:49;102181.66;;;10.93;58.36
24422;BME280;12600;53.326;-6.298;2023-04-20T01:33:38;102187.94;;;10.99;57.29
24422;BME280;12600;53.326;-6.298;2023-04-20T01:36:28;102166.34;;;10.87;57.43
24422;BME280;12600;53.326;-6.298;2023-04-20T01:39:19;102198.59;;;11.10;57.44
24422;BME280;12600;53.326;-6.298;2023-04-20T01:42:09;102198.06;;;11.03;57.81
24422;BME280;12600;53.326;-6.298;2023-04-20T01:44:58;102214.19;;;11.05;57.99
24422;BME280;12600;53.326;-6.298;2023-04-20T01:47:47;102217.75;;;11.00;58.24
24422;BME280;12600;53.326;-6.298;2023-04-20T01:50:37;102211.75;;;11.08;57.94
24422;BME280;12600;53.326;-6.298;2023-04-20T01:53:26;102206.81;;;11.05;57.86
24422;BME280;12600;53.326;-6.298;2023-04-20T01:56:17;102204.91;;;11.01;57.69
24422;BME280;12600;53.326;-6.298;2023-04-20T01:59:06;102191.22;;;10.90;57.84
24422;BME280;12600;53.326;-6.298;2023-04-20T02:01:55;102181.38;;;10.79;57.54
24422;BME280;12600;53.326;-6.298;2023-04-20T02:04:45;102184.66;;;10.76;57.25
24422;BME280;12600;53.326;-6.298;2023-04-20T02:07:34;102191.50;;;10.84;57.04
24422;BME280;12600;53.326;-6.298;2023-04-20T02:10:24;102178.94;;;10.78;56.94
24422;BME280;12600;53.326;-6.298;2023-04-20T02:13:15;102190.41;;;10.85;56.90
24422;BME280;12600;53.326;-6.298;2023-04-20T02:16:06;102189.03;;;10.77;56.82
24422;BME280;12600;53.326;-6.298;2023-04-20T02:18:55;102187.94;;;10.78;56.99
24422;BME280;12600;53.326;-6.298;2023-04-20T02:21:44;102180.31;;;10.75;57.32
24422;BME280;12600;53.326;-6.298;2023-04-20T02:24:34;102176.44;;;10.66;58.38
24422;BME280;12600;53.326;-6.298;2023-04-20T02:27:23;102162.50;;;10.62;58.62
24422;BME280;12600;53.326;-6.298;2023-04-20T02:30:14;102166.88;;;10.63;59.10
24422;BME280;12600;53.326;-6.298;2023-04-20T02:33:03;102174.00;;;10.64;59.68
24422;BME280;12600;53.326;-6.298;2023-04-20T02:35:53;102177.00;;;10.63;60.07
24422;BME280;12600;53.326;-6.298;2023-04-20T02:38:43;102172.34;;;10.58;59.95
24422;BME280;12600;53.326;-6.298;2023-04-20T02:41:32;102188.75;;;10.69;60.19
24422;BME280;12600;53.326;-6.298;2023-04-20T02:44:23;102184.34;;;10.57;60.81
24422;BME280;12600;53.326;-6.298;2023-04-20T02:47:13;102195.59;;;10.61;60.86
24422;BME280;12600;53.326;-6.298;2023-04-20T02:50:04;102200.50;;;10.64;60.73
24422;BME280;12600;53.326;-6.298;2023-04-20T02:53:04;102187.66;;;10.59;60.94
24422;BME280;12600;53.326;-6.298;2023-04-20T02:55:56;102193.66;;;10.56;60.95
24422;BME280;12600;53.326;-6.298;2023-04-20T02:58:58;102201.56;;;10.58;60.78
24422;BME280;12600;53.326;-6.298;2023-04-20T03:02:07;102200.78;;;10.52;60.46
24422;BME280;12600;53.326;-6.298;2023-04-20T03:04:59;102201.59;;;10.53;60.36
24422;BME280;12600;53.326;-6.298;2023-04-20T03:07:58;102197.75;;;10.49;60.31
24422;BME280;12600;53.326;-6.298;2023-04-20T03:10:49;102203.22;;;10.49;60.60
24422;BME280;12600;53.326;-6.298;2023-04-20T03:13:40;102211.13;;;10.45;60.59
24422;BME280;12600;53.326;-6.298;2023-04-20T03:16:30;102205.13;;;10.43;60.84
24422;BME280;12600;53.326;-6.298;2023-04-20T03:19:20;102188.72;;;10.38;60.96
24422;BME280;12600;53.326;-6.298;2023-04-20T03:22:10;102203.47;;;10.37;61.46
24422;BME280;12600;53.326;-6.298;2023-04-20T03:25:00;102196.06;;;10.32;61.74
24422;BME280;12600;53.326;-6.298;2023-04-20T03:28:12;102206.19;;;10.27;62.22
24422;BME280;12600;53.326;-6.298;2023-04-20T03:31:01;102214.66;;;10.30;62.12
24422;BME280;12600;53.326;-6.298;2023-04-20T03:33:54;102209.47;;;10.29;61.94
24422;BME280;12600;53.326;-6.298;2023-04-20T03:36:43;102217.13;;;10.37;61.60
24422;BME280;12600;53.326;-6.298;2023-04-20T03:39:34;102212.16;;;10.24;62.26
24422;BME280;12600;53.326;-6.298;2023-04-20T03:42:23;102208.91;;;10.27;62.04
24422;BME280;12600;53.326;-6.298;2023-04-20T03:45:14;102201.72;;;10.16;62.10
24422;BME280;12600;53.326;-6.298;2023-04-20T03:48:04;102199.88;;;10.26;61.99
24422;BME280;12600;53.326;-6.298;2023-04-20T03:50:53;102183.47;;;10.21;61.96
24422;BME280;12600;53.326;-6.298;2023-04-20T03:53:43;102183.16;;;10.18;62.08
24422;BME280;12600;53.326;-6.298;2023-04-20T03:56:35;102186.97;;;10.17;61.89
24422;BME280;12600;53.326;-6.298;2023-04-20T03:59:24;102189.19;;;10.20;61.81
24422;BME280;12600;53.326;-6.298;2023-04-20T04:02:14;102183.16;;;10.18;61.89
24422;BME280;12600;53.326;-6.298;2023-04-20T04:05:06;102179.34;;;10.14;61.67
24422;BME280;12600;53.326;-6.298;2023-04-20T04:07:56;102184.25;;;10.17;61.71
24422;BME280;12600;53.326;-6.298;2023-04-20T04:10:45;102175.50;;;10.15;61.80
24422;BME280;12600;53.326;-6.298;2023-04-20T04:13:36;102167.56;;;10.08;62.36
24422;BME280;12600;53.326;-6.298;2023-04-20T04:16:28;102168.94;;;10.05;62.35
24422;BME280;12600;53.326;-6.298;2023-04-20T04:19:17;102157.97;;;10.00;62.25
24422;BME280;12600;53.326;-6.298;2023-04-20T04:22:08;102157.97;;;10.00;62.27
24422;BME280;12600;53.326;-6.298;2023-04-20T04:25:08;102162.94;;;10.03;62.05
24422;BME280;12600;53.326;-6.298;2023-04-20T04:28:02;102149.78;;;10.00;62.15
24422;BME280;12600;53.326;-6.298;2023-04-20T04:30:54;102174.41;;;10.11;62.15
24422;BME280;12600;53.326;-6.298;2023-04-20T04:33:44;102163.69;;;9.94;62.00
24422;BME280;12600;53.326;-6.298;2023-04-20T04:36:43;102162.34;;;10.01;61.86
24422;BME280;12600;53.326;-6.298;2023-04-20T04:39:37;102161.53;;;10.01;61.67
24422;BME280;12600;53.326;-6.298;2023-04-20T04:42:33;102152.53;;;9.95;61.99
24422;BME280;12600;53.326;-6.298;2023-04-20T04:45:25;102152.78;;;9.94;62.47
24422;BME280;12600;53.326;-6.298;2023-04-20T04:48:16;102150.31;;;9.92;62.75
24422;BME280;12600;53.326;-6.298;2023-04-20T04:51:06;102142.94;;;9.93;62.95
24422;BME280;12600;53.326;-6.298;2023-04-20T04:53:56;102149.22;;;9.88;62.93
24422;BME280;12600;53.326;-6.298;2023-04-20T04:56:45;102147.81;;;9.86;63.15
24422;BME280;12600;53.326;-6.298;2023-04-20T04:59:34;102154.09;;;9.86;63.34
24422;BME280;12600;53.326;-6.298;2023-04-20T05:02:24;102168.34;;;9.93;63.11
24422;BME280;12600;53.326;-6.298;2023-04-20T05:05:15;102164.50;;;9.89;63.31
24422;BME280;12600;53.326;-6.298;2023-04-20T05:08:04;102152.47;;;9.80;63.66
24422;BME280;12600;53.326;-6.298;2023-04-20T05:10:54;102163.16;;;9.87;63.87
24422;BME280;12600;53.326;-6.298;2023-04-20T05:13:44;102147.81;;;9.80;64.10
24422;BME280;12600;53.326;-6.298;2023-04-20T05:16:35;102154.09;;;9.81;64.40
24422;BME280;12600;53.326;-6.298;2023-04-20T05:19:24;102139.59;;;9.75;64.84
24422;BME280;12600;53.326;-6.298;2023-04-20T05:22:15;102156.56;;;9.82;64.78
24422;BME280;12600;53.326;-6.298;2023-04-20T05:25:06;102168.31;;;9.83;65.06
24422;BME280;12600;53.326;-6.298;2023-04-20T05:27:55;102169.44;;;9.87;64.77
24422;BME280;12600;53.326;-6.298;2023-04-20T05:30:45;102187.41;;;9.83;65.31
24422;BME280;12600;53.326;-6.298;2023-04-20T05:33:34;102183.06;;;9.87;65.13
24422;BME280;12600;53.326;-6.298;2023-04-20T05:36:23;102176.75;;;9.81;65.42
24422;BME280;12600;53.326;-6.298;2023-04-20T05:39:14;102166.63;;;9.77;65.69
24422;BME280;12600;53.326;-6.298;2023-04-20T05:42:04;102155.75;;;9.82;66.05
24422;BME280;12600;53.326;-6.298;2023-04-20T05:44:53;102144.84;;;9.87;65.99
24422;BME280;12600;53.326;-6.298;2023-04-20T05:47:51;102146.47;;;9.83;66.53
24422;BME280;12600;53.326;-6.298;2023-04-20T05:50:42;102158.22;;;9.89;66.60
24422;BME280;12600;53.326;-6.298;2023-04-20T05:53:31;102149.47;;;9.81;66.76
24422;BME280;12600;53.326;-6.298;2023-04-20T05:56:22;102172.97;;;9.93;66.74
24422;BME280;12600;53.326;-6.298;2023-04-20T05:59:11;102176.28;;;9.95;66.46
24422;BME280;12600;53.326;-6.298;2023-04-20T06:02:00;102169.97;;;9.89;66.87
24422;BME280;12600;53.326;-6.298;2023-04-20T06:04:50;102185.03;;;9.97;66.81
24422;BME280;12600;53.326;-6.298;2023-04-20T06:07:39;102176.78;;;9.92;67.17
24422;BME280;12600;53.326;-6.298;2023-04-20T06:10:29;102167.25;;;9.99;66.92
24422;BME280;12600;53.326;-6.298;2023-04-20T06:13:22;102181.47;;;10.01;67.50
24422;BME280;12600;53.326;-6.298;2023-04-20T06:16:11;102171.13;;;10.03;67.46
24422;BME280;12600;53.326;-6.298;2023-04-20T06:19:01;102174.41;;;10.05;67.74
24422;BME280;12600;53.326;-6.298;2023-04-20T06:21:50;102184.53;;;10.15;67.43
24422;BME280;12600;53.326;-6.298;2023-04-20T06:24:39;102176.88;;;10.12;67.47
24422;BME280;12600;53.326;-6.298;2023-04-20T06:27:29;102179.91;;;10.21;67.21
24422;BME280;12600;53.326;-6.298;2023-04-20T06:30:20;102178.28;;;10.20;67.58
24422;BME280;12600;53.326;-6.298;2023-04-20T06:33:10;102189.75;;;10.22;68.05
24422;BME280;12600;53.326;-6.298;2023-04-20T06:36:06;102182.41;;;10.27;67.35
24422;BME280;12600;53.326;-6.298;2023-04-20T06:38:55;102180.78;;;10.31;67.39
24422;BME280;12600;53.326;-6.298;2023-04-20T06:41:45;102175.03;;;10.28;67.20
24422;BME280;12600;53.326;-6.298;2023-04-20T06:44:34;102174.50;;;10.36;66.83
24422;BME280;12600;53.326;-6.298;2023-04-20T06:47:25;102168.47;;;10.34;66.94
24422;BME280;12600;53.326;-6.298;2023-04-20T06:50:18;102173.41;;;10.42;67.03
24422;BME280;12600;53.326;-6.298;2023-04-20T06:53:08;102177.81;;;10.53;67.00
24422;BME280;12600;53.326;-6.298;2023-04-20T06:55:58;102177.81;;;10.53;67.25
24422;BME280;12600;53.326;-6.298;2023-04-20T06:58:47;102183.81;;;10.50;66.81
24422;BME280;12600;53.326;-6.298;2023-04-20T07:01:37;102184.91;;;10.64;66.13
24422;BME280;12600;53.326;-6.298;2023-04-20T07:04:27;102174.28;;;10.68;66.35
24422;BME280;12600;53.326;-6.298;2023-04-20T07:07:17;102173.47;;;10.68;66.35
24422;BME280;12600;53.326;-6.298;2023-04-20T07:10:07;102188.75;;;10.69;66.59
24422;BME280;12600;53.326;-6.298;2023-04-20T07:12:57;102178.63;;;10.74;66.53
24422;BME280;12600;53.326;-6.298;2023-04-20T07:15:46;102160.84;;;10.56;66.63
24422;BME280;12600;53.326;-6.298;2023-04-20T07:18:36;102184.94;;;10.90;66.95
24422;BME280;12600;53.326;-6.298;2023-04-20T07:21:27;102177.78;;;11.30;67.20
24422;BME280;12600;53.326;-6.298;2023-04-20T07:24:17;102193.03;;;11.66;66.34
24422;BME280;12600;53.326;-6.298;2023-04-20T07:27:06;102175.41;;;11.98;64.94
24422;BME280;12600;53.326;-6.298;2023-04-20T07:29:57;102180.47;;;12.25;64.22
24422;BME280;12600;53.326;-6.298;2023-04-20T07:32:47;102179.25;;;12.46;63.05
24422;BME280;12600;53.326;-6.298;2023-04-20T07:35:37;102182.31;;;12.74;61.32
24422;BME280;12600;53.326;-6.298;2023-04-20T07:38:27;102192.81;;;13.01;60.56
24422;BME280;12600;53.326;-6.298;2023-04-20T07:41:17;102185.00;;;13.13;59.15
24422;BME280;12600;53.326;-6.298;2023-04-20T07:44:06;102182.19;;;13.23;57.95
24422;BME280;12600;53.326;-6.298;2023-04-20T07:46:56;102180.94;;;13.39;57.72
24422;BME280;12600;53.326;-6.298;2023-04-20T07:49:45;102166.00;;;13.51;56.59
24422;BME280;12600;53.326;-6.298;2023-04-20T07:52:35;102178.13;;;13.68;55.99
24422;BME280;12600;53.326;-6.298;2023-04-20T07:55:25;102180.03;;;13.73;54.85
24422;BME280;12600;53.326;-6.298;2023-04-20T07:58:15;102173.75;;;13.91;54.61
24422;BME280;12600;53.326;-6.298;2023-04-20T08:01:04;102174.50;;;13.97;53.90
24422;BME280;12600;53.326;-6.298;2023-04-20T08:03:54;102166.63;;;13.90;52.26
24422;BME280;12600;53.326;-6.298;2023-04-20T08:06:43;102173.69;;;14.15;51.90
24422;BME280;12600;53.326;-6.298;2023-04-20T08:09:32;102181.56;;;14.41;51.96
24422;BME280;12600;53.326;-6.298;2023-04-20T08:12:23;102184.00;;;14.47;50.94
24422;BME280;12600;53.326;-6.298;2023-04-20T08:15:12;102201.16;;;14.58;50.73
24422;BME280;12600;53.326;-6.298;2023-04-20T08:18:02;102196.53;;;14.72;50.97
24422;BME280;12600;53.326;-6.298;2023-04-20T08:20:52;102164.75;;;14.47;49.40
24422;BME280;12600;53.326;-6.298;2023-04-20T08:23:41;102179.56;;;14.84;49.53
24422;BME280;12600;53.326;-6.298;2023-04-20T08:26:31;102192.34;;;15.07;49.29
24422;BME280;12600;53.326;-6.298;2023-04-20T08:29:21;102199.09;;;15.01;48.13
24422;BME280;12600;53.326;-6.298;2023-04-20T08:32:11;102203.22;;;15.31;48.52
24422;BME280;12600;53.326;-6.298;2023-04-20T08:35:00;102197.84;;;15.40;47.82
24422;BME280;12600;53.326;-6.298;2023-04-20T08:37:51;102199.47;;;15.55;46.82
24422;BME280;12600;53.326;-6.298;2023-04-20T08:40:40;102193.28;;;15.63;46.93
24422;BME280;12600;53.326;-6.298;2023-04-20T08:43:30;102189.72;;;15.90;46.96
24422;BME280;12600;53.326;-6.298;2023-04-20T08:46:22;102201.75;;;16.08;46.63
24422;BME280;12600;53.326;-6.298;2023-04-20T08:49:14;102202.75;;;16.26;45.58
24422;BME280;12600;53.326;-6.298;2023-04-20T08:52:04;102210.19;;;16.39;45.48
24422;BME280;12600;53.326;-6.298;2023-04-20T08:54:54;102195.00;;;16.50;45.92
24422;BME280;12600;53.326;-6.298;2023-04-20T08:57:46;102207.56;;;16.56;45.25
24422;BME280;12600;53.326;-6.298;2023-04-20T09:00:45;102188.44;;;16.37;45.10
24422;BME280;12600;53.326;-6.298;2023-04-20T09:03:38;102191.88;;;16.43;45.49
24422;BME280;12600;53.326;-6.298;2023-04-20T09:06:28;102210.53;;;16.10;45.94
24422;BME280;12600;53.326;-6.298;2023-04-20T09:09:19;102204.59;;;16.30;46.32
24422;BME280;12600;53.326;-6.298;2023-04-20T09:12:09;102195.50;;;16.52;45.54
24422;BME280;12600;53.326;-6.298;2023-04-20T09:14:58;102207.25;;;16.71;45.63
24422;BME280;12600;53.326;-6.298;2023-04-20T09:17:47;102204.97;;;16.73;45.02
24422;BME280;12600;53.326;-6.298;2023-04-20T09:20:39;102200.66;;;16.45;44.24
24422;BME280;12600;53.326;-6.298;2023-04-20T09:23:28;102207.41;;;16.39;45.08
24422;BME280;12600;53.326;-6.298;2023-04-20T09:26:18;102195.91;;;16.59;45.23
24422;BME280;12600;53.326;-6.298;2023-04-20T09:29:15;102194.03;;;16.68;44.60
24422;BME280;12600;53.326;-6.298;2023-04-20T09:32:05;102208.72;;;17.00;44.64
24422;BME280;12600;53.326;-6.298;2023-04-20T09:34:54;102199.97;;;17.29;44.68
24422;BME280;12600;53.326;-6.298;2023-04-20T09:37:49;102198.19;;;17.64;44.41
24422;BME280;12600;53.326;-6.298;2023-04-20T09:40:38;102198.56;;;17.71;43.30
24422;BME280;12600;53.326;-6.298;2023-04-20T09:43:28;102195.38;;;17.95;42.97
24422;BME280;12600;53.326;-6.298;2023-04-20T09:46:18;102194.59;;;18.03;43.37
24422;BME280;12600;53.326;-6.298;2023-04-20T09:49:09;102190.41;;;18.23;43.12
24422;BME280;12600;53.326;-6.298;2023-04-20T09:52:01;102193.53;;;18.48;43.09
24422;BME280;12600;53.326;-6.298;2023-04-20T09:54:53;102189.13;;;18.64;41.62
24422;BME280;12600;53.326;-6.298;2023-04-20T09:57:43;102182.78;;;18.63;41.20
24422;BME280;12600;53.326;-6.298;2023-04-20T10:00:33;102185.41;;;18.77;40.52
24422;BME280;12600;53.326;-6.298;2023-04-20T10:03:22;102187.84;;;18.79;40.30
24422;BME280;12600;53.326;-6.298;2023-04-20T10:06:20;102196.50;;;18.77;39.80
24422;BME280;12600;53.326;-6.298;2023-04-20T10:09:21;102179.03;;;18.68;38.98
24422;BME280;12600;53.326;-6.298;2023-04-20T10:12:12;102185.22;;;18.91;39.48
24422;BME280;12600;53.326;-6.298;2023-04-20T10:15:02;102187.97;;;18.91;39.16
24422;BME280;12600;53.326;-6.298;2023-04-20T10:17:52;102160.78;;;18.76;39.73
24422;BME280;12600;53.326;-6.298;2023-04-20T10:20:42;102169.41;;;18.91;40.04
24422;BME280;12600;53.326;-6.298;2023-04-20T10:23:31;102179.56;;;18.70;39.18
24422;BME280;12600;53.326;-6.298;2023-04-20T10:26:21;102198.41;;;18.51;39.94
24422;BME280;12600;53.326;-6.298;2023-04-20T10:29:22;102192.03;;;18.24;40.88
24422;BME280;12600;53.326;-6.298;2023-04-20T10:32:21;102194.00;;;18.58;40.65
24422;BME280;12600;53.326;-6.298;2023-04-20T10:35:11;102176.59;;;18.75;40.21
24422;BME280;12600;53.326;-6.298;2023-04-20T10:38:03;102180.66;;;18.95;39.65
24422;BME280;12600;53.326;-6.298;2023-04-20T10:40:52;102180.06;;;19.36;39.61
24422;BME280;12600;53.326;-6.298;2023-04-20T10:43:41;102166.50;;;19.43;38.68
24422;BME280;12600;53.326;-6.298;2023-04-20T10:46:32;102164.09;;;19.71;38.88
24422;BME280;12600;53.326;-6.298;2023-04-20T10:49:25;102167.13;;;19.58;38.96
24422;BME280;12600;53.326;-6.298;2023-04-20T10:52:15;102167.09;;;19.87;39.37
24422;BME280;12600;53.326;-6.298;2023-04-20T10:55:06;102167.81;;;20.05;38.12
24422;BME280;12600;53.326;-6.298;2023-04-20T10:58:05;102174.13;;;20.14;37.89
24422;BME280;12600;53.326;-6.298;2023-04-20T11:00:59;102165.81;;;19.84;37.62
24422;BME280;12600;53.326;-6.298;2023-04-20T11:03:51;102168.06;;;19.91;38.37
24422;BME280;12600;53.326;-6.298;2023-04-20T11:06:42;102169.00;;;19.95;39.41
24422;BME280;12600;53.326;-6.298;2023-04-20T11:09:32;102164.59;;;19.65;39.34
24422;BME280;12600;53.326;-6.298;2023-04-20T11:12:21;102160.75;;;19.48;39.05
24422;BME280;12600;53.326;-6.298;2023-04-20T11:15:11;102154.88;;;19.59;39.37
24422;BME280;12600;53.326;-6.298;2023-04-20T11:18:06;102143.00;;;19.41;39.18
24422;BME280;12600;53.326;-6.298;2023-04-20T11:20:57;102165.63;;;19.90;39.59
24422;BME280;12600;53.326;-6.298;2023-04-20T11:23:47;102163.69;;;19.90;38.84
24422;BME280;12600;53.326;-6.298;2023-04-20T11:26:37;102156.78;;;20.17;38.58
24422;BME280;12600;53.326;-6.298;2023-04-20T11:29:32;102160.47;;;20.30;38.29
24422;BME280;12600;53.326;-6.298;2023-04-20T11:32:21;102155.91;;;20.25;37.93
24422;BME280;12600;53.326;-6.298;2023-04-20T11:35:11;102155.56;;;20.27;38.03
24422;BME280;12600;53.326;-6.298;2023-04-20T11:38:03;102155.56;;;20.06;37.35
24422;BME280;12600;53.326;-6.298;2023-04-20T11:40:52;102157.84;;;19.83;38.29
24422;BME280;12600;53.326;-6.298;2023-04-20T11:43:41;102158.19;;;19.81;38.82
24422;BME280;12600;53.326;-6.298;2023-04-20T11:46:34;102152.09;;;19.59;38.70
24422;BME280;12600;53.326;-6.298;2023-04-20T11:49:26;102156.59;;;19.72;39.04
24422;BME280;12600;53.326;-6.298;2023-04-20T11:52:15;102152.44;;;19.87;38.69
24422;BME280;12600;53.326;-6.298;2023-04-20T11:55:07;102139.00;;;19.97;38.41
24422;BME280;12600;53.326;-6.298;2023-04-20T11:57:58;102135.75;;;20.16;37.96
24422;BME280;12600;53.326;-6.298;2023-04-20T12:00:47;102133.84;;;20.29;37.80
24422;BME280;12600;53.326;-6.298;2023-04-20T12:03:37;102123.31;;;20.22;37.64
24422;BME280;12600;53.326;-6.298;2023-04-20T12:06:27;102125.31;;;20.13;36.71
24422;BME280;12600;53.326;-6.298;2023-04-20T12:09:16;102120.97;;;19.82;38.18
24422;BME280;12600;53.326;-6.298;2023-04-20T12:12:07;102128.84;;;20.01;37.97
24422;BME280;12600;53.326;-6.298;2023-04-20T12:14:57;102136.03;;;20.23;37.55
24422;BME280;12600;53.326;-6.298;2023-04-20T12:17:46;102128.84;;;20.22;37.51
24422;BME280;12600;53.326;-6.298;2023-04-20T12:20:35;102145.56;;;20.34;37.32
24422;BME280;12600;53.326;-6.298;2023-04-20T12:23:25;102154.69;;;20.35;37.31
24422;BME280;12600;53.326;-6.298;2023-04-20T12:26:14;102150.91;;;20.60;36.85
24422;BME280;12600;53.326;-6.298;2023-04-20T12:29:05;102151.69;;;20.82;36.20
24422;BME280;12600;53.326;-6.298;2023-04-20T12:31:55;102152.09;;;21.05;35.62
24422;BME280;12600;53.326;-6.298;2023-04-20T12:34:44;102150.06;;;20.81;35.25
24422;BME280;12600;53.326;-6.298;2023-04-20T12:37:33;102152.13;;;20.72;35.21
24422;BME280;12600;53.326;-6.298;2023-04-20T12:40:23;102145.91;;;20.54;35.22
24422;BME280;12600;53.326;-6.298;2023-04-20T12:43:12;102136.63;;;20.50;35.55
24422;BME280;12600;53.326;-6.298;2023-04-20T12:46:04;102130.50;;;20.35;35.28
24422;BME280;12600;53.326;-6.298;2023-04-20T12:48:53;102136.03;;;20.44;35.45
24422;BME280;12600;53.326;-6.298;2023-04-20T12:51:43;102123.63;;;20.21;35.83
24422;BME280;12600;53.326;-6.298;2023-04-20T12:54:32;102124.03;;;20.10;36.28
24422;BME280;12600;53.326;-6.298;2023-04-20T12:57:21;102125.03;;;20.27;36.68
24422;BME280;12600;53.326;-6.298;2023-04-20T13:00:11;102123.25;;;20.43;35.79
24422;BME280;12600;53.326;-6.298;2023-04-20T13:03:03;102112.84;;;20.40;35.39
24422;BME280;12600;53.326;-6.298;2023-04-20T13:05:53;102122.91;;;20.53;34.52
24422;BME280;12600;53.326;-6.298;2023-04-20T13:08:42;102119.91;;;20.37;34.54
24422;BME280;12600;53.326;-6.298;2023-04-20T13:11:31;102118.47;;;20.31;35.34
24422;BME280;12600;53.326;-6.298;2023-04-20T13:14:20;102117.88;;;20.26;35.55
24422;BME280;12600;53.326;-6.298;2023-04-20T13:17:10;102118.81;;;20.30;35.84
24422;BME280;12600;53.326;-6.298;2023-04-20T13:20:00;102122.41;;;20.51;36.09
24422;BME280;12600;53.326;-6.298;2023-04-20T13:22:51;102106.09;;;20.50;35.33
24422;BME280;12600;53.326;-6.298;2023-04-20T13:25:44;102083.75;;;20.46;35.99
24422;BME280;12600;53.326;-6.298;2023-04-20T13:28:34;102095.81;;;20.29;36.10
24422;BME280;12600;53.326;-6.298;2023-04-20T13:31:24;102097.66;;;20.46;36.50
24422;BME280;12600;53.326;-6.298;2023-04-20T13:34:14;102101.22;;;20.80;36.21
24422;BME280;12600;53.326;-6.298;2023-04-20T13:37:05;102109.59;;;21.16;35.27
24422;BME280;12600;53.326;-6.298;2023-04-20T13:39:54;102107.41;;;21.10;34.66
24422;BME280;12600;53.326;-6.298;2023-04-20T13:42:44;102110.31;;;21.13;35.09
24422;BME280;12600;53.326;-6.298;2023-04-20T13:45:33;102105.91;;;21.12;34.97
24422;BME280;12600;53.326;-6.298;2023-04-20T13:48:22;102095.94;;;21.23;34.69
24422;BME280;12600;53.326;-6.298;2023-04-20T13:51:12;102096.22;;;21.43;34.36
24422;BME280;12600;53.326;-6.298;2023-04-20T13:54:03;102068.84;;;20.96;34.66
24422;BME280;12600;53.326;-6.298;2023-04-20T13:56:52;102081.56;;;20.97;34.58
24422;BME280;12600;53.326;-6.298;2023-04-20T13:59:41;102083.88;;;20.95;34.98
24422;BME280;12600;53.326;-6.298;2023-04-20T14:02:31;102063.78;;;20.65;34.99
24422;BME280;12600;53.326;-6.298;2023-04-20T14:05:21;102077.84;;;20.81;34.54
24422;BME280;12600;53.326;-6.298;2023-04-20T14:08:10;102075.19;;;21.09;34.33
24422;BME280;12600;53.326;-6.298;2023-04-20T14:11:02;102074.16;;;21.13;33.67
24422;BME280;12600;53.326;-6.298;2023-04-20T14:13:51;102070.91;;;20.87;33.98
24422;BME280;12600;53.326;-6.298;2023-04-20T14:16:44;102041.22;;;20.54;34.16
24422;BME280;12600;53.326;-6.298;2023-04-20T14:19:34;102042.75;;;20.43;34.10
24422;BME280;12600;53.326;-6.298;2023-04-20T14:22:23;102016.66;;;20.44;33.86
24422;BME280;12600;53.326;-6.298;2023-04-20T14:25:12;102040.34;;;20.21;33.57
24422;BME280;12600;53.326;-6.298;2023-04-20T14:28:03;102039.97;;;20.10;33.81
24422;BME280;12600;53.326;-6.298;2023-04-20T14:30:53;102026.38;;;20.17;34.11
24422;BME280;12600;53.326;-6.298;2023-04-20T14:33:42;102015.53;;;20.03;33.80
24422;BME280;12600;53.326;-6.298;2023-04-20T14:36:32;102028.25;;;20.04;34.31
24422;BME280;12600;53.326;-6.298;2023-04-20T14:39:21;102028.94;;;20.22;34.01